sensor_id;sensor_type;location;lat;lon;timestamp;P1;durP1;ratioP1;P2;durP2;ratioP2
54406;SDS011;40313;50.308;30.374;2023-02-28T00:15:58;7.43;;;6.30;;
54406;SDS011;40313;50.308;30.374;2023-02-28T00:18:25;7.82;;;6.47;;
54406;SDS011;40313;50.308;30.374;2023-02-28T00:20:52;7.88;;;7.13;;
54406;SDS011;40313;50.308;30.374;2023-02-28T00:23:18;10.90;;;6.13;;
54406;SDS011;40313;50.308;30.374;2023-02-28T00:25:45;3.95;;;3.75;;
54406;SDS011;40313;50.308;30.374;2023-02-28T00:28:11;9.02;;;7.18;;
54406;SDS011;40313;50.308;30.374;2023-02-28T00:30:39;7.22;;;5.93;;
54406;SDS011;40313;50.308;30.374;2023-02-28T00:33:06;6.95;;;5.57;;
54406;SDS011;40313;50.308;30.374;2023-02-28T00:35:32;6.57;;;5.97;;
54406;SDS011;40313;50.308;30.374;2023-02-28T00:38:00;6.72;;;6.13;;
54406;SDS011;40313;50.308;30.374;2023-02-28T00:40:27;7.85;;;5.35;;
54406;SDS011;40313;50.308;30.374;2023-02-28T00:42:54;7.88;;;5.10;;
54406;SDS011;40313;50.308;30.374;2023-02-28T00:45:20;5.97;;;5.47;;
54406;SDS011;40313;50.308;30.374;2023-02-28T00:47:48;6.38;;;5.85;;
54406;SDS011;40313;50.308;30.374;2023-02-28T00:50:15;7.28;;;6.47;;
54406;SDS011;40313;50.308;30.374;2023-02-28T00:52:42;8.18;;;6.13;;
54406;SDS011;40313;50.308;30.374;2023-02-28T00:55:09;5.60;;;5.20;;
54406;SDS011;40313;50.308;30.374;2023-02-28T00:57:35;5.50;;;4.97;;
54406;SDS011;40313;50.308;30.374;2023-02-28T01:02:29;6.35;;;5.95;;
54406;SDS011;40313;50.308;30.374;2023-02-28T01:04:57;6.25;;;5.35;;
54406;SDS011;40313;50.308;30.374;2023-02-28T01:07:24;6.00;;;5.57;;
54406;SDS011;40313;50.308;30.374;2023-02-28T01:09:50;7.78;;;5.25;;
54406;SDS011;40313;50.308;30.374;2023-02-28T01:12:17;5.82;;;5.22;;
54406;SDS011;40313;50.308;30.374;2023-02-28T01:14:43;5.10;;;4.60;;
54406;SDS011;40313;50.308;30.374;2023-02-28T01:17:10;6.28;;;4.93;;
54406;SDS011;40313;50.308;30.374;2023-02-28T01:19:36;8.07;;;6.68;;
54406;SDS011;40313;50.308;30.374;2023-02-28T01:22:05;8.93;;;6.55;;
54406;SDS011;40313;50.308;30.374;2023-02-28T01:24:32;8.38;;;6.35;;
54406;SDS011;40313;50.308;30.374;2023-02-28T01:26:59;7.90;;;7.10;;
54406;SDS011;40313;50.308;30.374;2023-02-28T01:29:26;10.13;;;7.07;;
54406;SDS011;40313;50.308;30.374;2023-02-28T01:31:52;7.28;;;6.57;;
54406;SDS011;40313;50.308;30.374;2023-02-28T01:34:19;6.00;;;5.40;;
54406;SDS011;40313;50.308;30.374;2023-02-28T01:36:45;4.53;;;4.22;;
54406;SDS011;40313;50.308;30.374;2023-02-28T01:39:13;8.43;;;5.68;;
54406;SDS011;40313;50.308;30.374;2023-02-28T01:41:39;5.43;;;5.03;;
54406;SDS011;40313;50.308;30.374;2023-02-28T01:44:07;6.88;;;6.07;;
54406;SDS011;40313;50.308;30.374;2023-02-28T01:47:11;6.17;;;5.67;;
54406;SDS011;40313;50.308;30.374;2023-02-28T01:49:38;7.32;;;6.63;;
54406;SDS011;40313;50.308;30.374;2023-02-28T01:52:05;7.15;;;6.50;;
54406;SDS011;40313;50.308;30.374;2023-02-28T01:54:34;5.95;;;5.15;;
54406;SDS011;40313;50.308;30.374;2023-02-28T03:25:37;6.68;;;6.13;;
54406;SDS011;40313;50.308;30.374;2023-02-28T03:28:17;5.35;;;4.97;;
54406;SDS011;40313;50.308;30.374;2023-02-28T03:30:51;5.05;;;4.53;;
54406;SDS011;40313;50.308;30.374;2023-02-28T03:33:21;6.43;;;3.88;;
54406;SDS011;40313;50.308;30.374;2023-02-28T03:35:51;3.58;;;3.38;;
54406;SDS011;40313;50.308;30.374;2023-02-28T03:38:22;3.97;;;3.38;;
54406;SDS011;40313;50.308;30.374;2023-02-28T03:40:55;4.43;;;3.67;;
54406;SDS011;40313;50.308;30.374;2023-02-28T03:43:28;3.45;;;3.25;;
54406;SDS011;40313;50.308;30.374;2023-02-28T03:45:58;2.80;;;2.60;;
54406;SDS011;40313;50.308;30.374;2023-02-28T03:48:28;2.90;;;2.70;;
54406;SDS011;40313;50.308;30.374;2023-02-28T03:51:01;3.38;;;3.13;;
54406;SDS011;40313;50.308;30.374;2023-02-28T04:00:59;4.18;;;3.85;;
54406;SDS011;40313;50.308;30.374;2023-02-28T04:03:33;4.05;;;3.83;;
54406;SDS011;40313;50.308;30.374;2023-02-28T04:06:00;3.95;;;3.40;;
54406;SDS011;40313;50.308;30.374;2023-02-28T04:08:27;4.30;;;4.03;;
54406;SDS011;40313;50.308;30.374;2023-02-28T04:10:56;4.95;;;4.55;;
54406;SDS011;40313;50.308;30.374;2023-02-28T04:13:28;5.15;;;4.85;;
54406;SDS011;40313;50.308;30.374;2023-02-28T04:15:54;4.78;;;4.32;;
54406;SDS011;40313;50.308;30.374;2023-02-28T04:18:21;5.13;;;4.72;;
54406;SDS011;40313;50.308;30.374;2023-02-28T04:20:47;5.22;;;4.68;;
54406;SDS011;40313;50.308;30.374;2023-02-28T04:23:14;13.50;;;4.03;;
54406;SDS011;40313;50.308;30.374;2023-02-28T04:25:40;3.78;;;3.47;;
54406;SDS011;40313;50.308;30.374;2023-02-28T04:28:08;4.75;;;4.32;;
54406;SDS011;40313;50.308;30.374;2023-02-28T04:30:35;5.22;;;4.93;;
54406;SDS011;40313;50.308;30.374;2023-02-28T04:33:01;5.35;;;4.32;;
54406;SDS011;40313;50.308;30.374;2023-02-28T04:35:28;4.57;;;4.18;;
54406;SDS011;40313;50.308;30.374;2023-02-28T04:37:54;6.15;;;4.82;;
54406;SDS011;40313;50.308;30.374;2023-02-28T04:40:21;6.18;;;5.75;;
54406;SDS011;40313;50.308;30.374;2023-02-28T04:42:47;4.57;;;4.18;;
54406;SDS011;40313;50.308;30.374;2023-02-28T04:45:15;4.90;;;4.40;;
54406;SDS011;40313;50.308;30.374;2023-02-28T10:16:40;13.80;;;7.40;;
54406;SDS011;40313;50.308;30.374;2023-02-28T10:19:12;23.95;;;7.88;;
54406;SDS011;40313;50.308;30.374;2023-02-28T10:21:44;6.57;;;5.07;;
54406;SDS011;40313;50.308;30.374;2023-02-28T10:24:20;4.28;;;4.03;;
54406;SDS011;40313;50.308;30.374;2023-02-28T10:26:52;7.82;;;6.00;;
54406;SDS011;40313;50.308;30.374;2023-02-28T10:29:25;9.77;;;6.18;;
54406;SDS011;40313;50.308;30.374;2023-02-28T10:31:52;5.82;;;5.38;;
54406;SDS011;40313;50.308;30.374;2023-02-28T10:34:20;4.30;;;3.90;;
54406;SDS011;40313;50.308;30.374;2023-02-28T10:36:46;7.85;;;4.85;;
54406;SDS011;40313;50.308;30.374;2023-02-28T10:39:36;9.27;;;6.50;;
54406;SDS011;40313;50.308;30.374;2023-02-28T10:42:05;6.47;;;6.07;;
54406;SDS011;40313;50.308;30.374;2023-02-28T10:44:45;15.82;;;5.40;;
54406;SDS011;40313;50.308;30.374;2023-02-28T10:47:13;9.27;;;6.45;;
54406;SDS011;40313;50.308;30.374;2023-02-28T10:49:46;7.28;;;6.65;;
54406;SDS011;40313;50.308;30.374;2023-02-28T10:52:14;6.15;;;5.68;;
54406;SDS011;40313;50.308;30.374;2023-02-28T10:55:15;7.68;;;6.88;;
54406;SDS011;40313;50.308;30.374;2023-02-28T10:57:45;5.72;;;5.00;;
54406;SDS011;40313;50.308;30.374;2023-02-28T11:00:15;6.28;;;5.88;;
54406;SDS011;40313;50.308;30.374;2023-02-28T11:02:43;6.90;;;5.93;;
54406;SDS011;40313;50.308;30.374;2023-02-28T11:05:25;10.82;;;6.20;;
54406;SDS011;40313;50.308;30.374;2023-02-28T11:07:54;6.07;;;5.75;;
54406;SDS011;40313;50.308;30.374;2023-02-28T11:10:24;7.00;;;6.30;;
54406;SDS011;40313;50.308;30.374;2023-02-28T11:12:55;6.28;;;5.80;;
54406;SDS011;40313;50.308;30.374;2023-02-28T11:15:23;5.47;;;4.97;;
54406;SDS011;40313;50.308;30.374;2023-02-28T11:17:54;7.22;;;6.50;;
54406;SDS011;40313;50.308;30.374;2023-02-28T11:20:24;6.85;;;6.25;;
54406;SDS011;40313;50.308;30.374;2023-02-28T11:22:53;8.82;;;5.55;;
54406;SDS011;40313;50.308;30.374;2023-02-28T11:25:24;5.45;;;5.05;;
54406;SDS011;40313;50.308;30.374;2023-02-28T11:27:52;6.57;;;6.03;;
54406;SDS011;40313;50.308;30.374;2023-02-28T11:30:24;6.28;;;5.85;;
54406;SDS011;40313;50.308;30.374;2023-02-28T11:32:54;6.78;;;6.32;;
54406;SDS011;40313;50.308;30.374;2023-02-28T11:35:22;6.35;;;5.95;;
54406;SDS011;40313;50.308;30.374;2023-02-28T11:37:51;5.65;;;5.35;;
54406;SDS011;40313;50.308;30.374;2023-02-28T11:40:19;7.15;;;6.45;;
54406;SDS011;40313;50.308;30.374;2023-02-28T11:43:07;7.15;;;6.50;;
54406;SDS011;40313;50.308;30.374;2023-02-28T11:45:45;7.95;;;6.13;;
54406;SDS011;40313;50.308;30.374;2023-02-28T11:48:21;7.47;;;6.13;;
54406;SDS011;40313;50.308;30.374;2023-02-28T11:50:57;9.00;;;8.30;;
54406;SDS011;40313;50.308;30.374;2023-02-28T11:53:35;9.15;;;8.13;;
54406;SDS011;40313;50.308;30.374;2023-02-28T11:56:16;8.98;;;8.13;;
54406;SDS011;40313;50.308;30.374;2023-02-28T11:58:54;9.25;;;8.40;;
54406;SDS011;40313;50.308;30.374;2023-02-28T12:01:44;7.15;;;6.70;;
54406;SDS011;40313;50.308;30.374;2023-02-28T12:04:29;14.55;;;6.70;;
54406;SDS011;40313;50.308;30.374;2023-02-28T12:07:09;7.38;;;6.72;;
54406;SDS011;40313;50.308;30.374;2023-02-28T12:09:44;10.90;;;9.30;;
54406;SDS011;40313;50.308;30.374;2023-02-28T12:12:29;7.90;;;7.05;;
54406;SDS011;40313;50.308;30.374;2023-02-28T12:15:17;8.18;;;6.65;;
54406;SDS011;40313;50.308;30.374;2023-02-28T12:18:11;5.88;;;5.57;;
54406;SDS011;40313;50.308;30.374;2023-02-28T12:20:49;6.60;;;6.00;;
54406;SDS011;40313;50.308;30.374;2023-02-28T12:23:26;7.65;;;7.05;;
54406;SDS011;40313;50.308;30.374;2023-02-28T12:26:21;11.43;;;8.98;;
54406;SDS011;40313;50.308;30.374;2023-02-28T12:28:59;9.02;;;8.20;;
54406;SDS011;40313;50.308;30.374;2023-02-28T12:31:31;9.30;;;8.23;;
54406;SDS011;40313;50.308;30.374;2023-02-28T12:34:03;13.80;;;11.38;;
54406;SDS011;40313;50.308;30.374;2023-02-28T12:36:35;9.60;;;8.15;;
54406;SDS011;40313;50.308;30.374;2023-02-28T12:39:03;6.45;;;6.05;;
54406;SDS011;40313;50.308;30.374;2023-02-28T12:41:36;9.32;;;8.63;;
54406;SDS011;40313;50.308;30.374;2023-02-28T12:44:09;10.38;;;7.35;;
54406;SDS011;40313;50.308;30.374;2023-02-28T12:46:42;6.43;;;5.97;;
54406;SDS011;40313;50.308;30.374;2023-02-28T12:49:15;6.68;;;5.93;;
54406;SDS011;40313;50.308;30.374;2023-02-28T12:51:43;8.15;;;6.35;;
54406;SDS011;40313;50.308;30.374;2023-02-28T12:54:14;7.25;;;6.75;;
54406;SDS011;40313;50.308;30.374;2023-02-28T12:56:47;4.72;;;4.43;;
54406;SDS011;40313;50.308;30.374;2023-02-28T12:59:25;10.10;;;6.30;;
54406;SDS011;40313;50.308;30.374;2023-02-28T13:10:38;6.57;;;6.07;;
54406;SDS011;40313;50.308;30.374;2023-02-28T13:13:06;12.98;;;7.68;;
54406;SDS011;40313;50.308;30.374;2023-02-28T13:15:40;8.05;;;7.38;;
54406;SDS011;40313;50.308;30.374;2023-02-28T13:18:20;6.28;;;5.78;;
54406;SDS011;40313;50.308;30.374;2023-02-28T13:20:55;6.93;;;6.38;;
54406;SDS011;40313;50.308;30.374;2023-02-28T13:26:23;12.15;;;8.00;;
54406;SDS011;40313;50.308;30.374;2023-02-28T13:29:30;8.40;;;7.28;;
54406;SDS011;40313;50.308;30.374;2023-02-28T13:34:47;8.57;;;7.35;;
54406;SDS011;40313;50.308;30.374;2023-02-28T13:38:12;6.50;;;6.00;;
54406;SDS011;40313;50.308;30.374;2023-02-28T13:40:43;6.78;;;6.38;;
54406;SDS011;40313;50.308;30.374;2023-02-28T13:43:10;8.25;;;7.13;;
54406;SDS011;40313;50.308;30.374;2023-02-28T13:45:36;7.57;;;7.03;;
54406;SDS011;40313;50.308;30.374;2023-02-28T13:48:04;11.95;;;7.95;;
54406;SDS011;40313;50.308;30.374;2023-02-28T13:50:42;8.38;;;7.65;;
54406;SDS011;40313;50.308;30.374;2023-02-28T13:58:52;9.23;;;8.18;;
54406;SDS011;40313;50.308;30.374;2023-02-28T14:01:25;7.50;;;6.78;;
54406;SDS011;40313;50.308;30.374;2023-02-28T14:04:15;8.65;;;7.95;;
54406;SDS011;40313;50.308;30.374;2023-02-28T14:07:16;7.70;;;6.88;;
54406;SDS011;40313;50.308;30.374;2023-02-28T14:09:48;8.35;;;7.65;;
54406;SDS011;40313;50.308;30.374;2023-02-28T14:15:39;7.38;;;6.78;;
54406;SDS011;40313;50.308;30.374;2023-02-28T14:18:15;8.10;;;7.32;;
54406;SDS011;40313;50.308;30.374;2023-02-28T14:20:47;8.70;;;7.85;;
54406;SDS011;40313;50.308;30.374;2023-02-28T14:23:16;8.43;;;6.75;;
54406;SDS011;40313;50.308;30.374;2023-02-28T14:25:55;17.58;;;7.22;;
54406;SDS011;40313;50.308;30.374;2023-02-28T14:28:36;8.30;;;7.47;;
54406;SDS011;40313;50.308;30.374;2023-02-28T14:31:14;8.00;;;6.90;;
54406;SDS011;40313;50.308;30.374;2023-02-28T14:34:12;9.07;;;7.43;;
54406;SDS011;40313;50.308;30.374;2023-02-28T14:36:50;7.47;;;6.80;;
54406;SDS011;40313;50.308;30.374;2023-02-28T14:39:20;8.57;;;6.97;;
54406;SDS011;40313;50.308;30.374;2023-02-28T14:41:51;8.20;;;7.43;;
54406;SDS011;40313;50.308;30.374;2023-02-28T14:44:18;11.65;;;7.70;;
54406;SDS011;40313;50.308;30.374;2023-02-28T14:46:48;14.88;;;8.10;;
54406;SDS011;40313;50.308;30.374;2023-02-28T14:59:26;12.38;;;7.82;;
54406;SDS011;40313;50.308;30.374;2023-02-28T15:04:41;7.10;;;6.40;;
54406;SDS011;40313;50.308;30.374;2023-02-28T15:07:08;11.15;;;6.45;;
54406;SDS011;40313;50.308;30.374;2023-02-28T15:09:35;12.95;;;6.97;;
54406;SDS011;40313;50.308;30.374;2023-02-28T15:12:03;8.70;;;8.00;;
54406;SDS011;40313;50.308;30.374;2023-02-28T15:14:29;8.15;;;7.30;;
54406;SDS011;40313;50.308;30.374;2023-02-28T15:19:26;11.63;;;6.37;;
54406;SDS011;40313;50.308;30.374;2023-02-28T15:31:55;9.68;;;6.10;;
54406;SDS011;40313;50.308;30.374;2023-02-28T15:44:14;12.15;;;9.65;;
54406;SDS011;40313;50.308;30.374;2023-02-28T15:49:19;24.25;;;8.75;;
54406;SDS011;40313;50.308;30.374;2023-02-28T15:51:48;10.68;;;8.13;;
54406;SDS011;40313;50.308;30.374;2023-02-28T15:54:17;20.17;;;10.95;;
54406;SDS011;40313;50.308;30.374;2023-02-28T15:56:49;10.07;;;9.20;;
54406;SDS011;40313;50.308;30.374;2023-02-28T15:59:19;15.45;;;9.70;;
54406;SDS011;40313;50.308;30.374;2023-02-28T16:02:03;15.23;;;11.60;;
54406;SDS011;40313;50.308;30.374;2023-02-28T16:04:53;16.02;;;10.40;;
54406;SDS011;40313;50.308;30.374;2023-02-28T16:07:21;10.93;;;9.82;;
54406;SDS011;40313;50.308;30.374;2023-02-28T16:09:47;13.88;;;11.15;;
54406;SDS011;40313;50.308;30.374;2023-02-28T16:12:14;19.65;;;10.73;;
54406;SDS011;40313;50.308;30.374;2023-02-28T16:17:12;10.98;;;9.48;;
54406;SDS011;40313;50.308;30.374;2023-02-28T16:19:45;16.20;;;9.95;;
54406;SDS011;40313;50.308;30.374;2023-02-28T16:22:12;24.45;;;14.02;;
54406;SDS011;40313;50.308;30.374;2023-02-28T16:24:39;13.40;;;12.07;;
54406;SDS011;40313;50.308;30.374;2023-02-28T16:27:05;13.63;;;11.05;;
54406;SDS011;40313;50.308;30.374;2023-02-28T16:29:33;33.05;;;12.35;;
54406;SDS011;40313;50.308;30.374;2023-02-28T16:32:03;16.65;;;11.82;;
54406;SDS011;40313;50.308;30.374;2023-02-28T16:34:32;25.90;;;14.02;;
54406;SDS011;40313;50.308;30.374;2023-02-28T16:36:59;14.35;;;11.38;;
54406;SDS011;40313;50.308;30.374;2023-02-28T16:39:25;16.38;;;10.63;;
54406;SDS011;40313;50.308;30.374;2023-02-28T16:41:52;20.05;;;12.90;;
54406;SDS011;40313;50.308;30.374;2023-02-28T16:44:21;20.98;;;12.93;;
54406;SDS011;40313;50.308;30.374;2023-02-28T16:46:52;21.73;;;13.45;;
54406;SDS011;40313;50.308;30.374;2023-02-28T16:49:19;17.50;;;12.98;;
54406;SDS011;40313;50.308;30.374;2023-02-28T16:51:47;18.48;;;12.15;;
54406;SDS011;40313;50.308;30.374;2023-02-28T16:54:13;20.33;;;12.52;;
54406;SDS011;40313;50.308;30.374;2023-02-28T16:56:40;22.55;;;13.77;;
54406;SDS011;40313;50.308;30.374;2023-02-28T16:59:10;16.13;;;13.05;;
54406;SDS011;40313;50.308;30.374;2023-02-28T17:01:37;31.40;;;14.80;;
54406;SDS011;40313;50.308;30.374;2023-02-28T17:04:04;21.83;;;14.45;;
54406;SDS011;40313;50.308;30.374;2023-02-28T17:06:31;19.48;;;13.05;;
54406;SDS011;40313;50.308;30.374;2023-02-28T17:08:58;19.13;;;13.55;;
54406;SDS011;40313;50.308;30.374;2023-02-28T17:11:25;28.92;;;13.75;;
54406;SDS011;40313;50.308;30.374;2023-02-28T17:13:52;30.08;;;13.02;;
54406;SDS011;40313;50.308;30.374;2023-02-28T17:16:21;27.83;;;16.63;;
54406;SDS011;40313;50.308;30.374;2023-02-28T17:18:56;34.17;;;17.85;;
54406;SDS011;40313;50.308;30.374;2023-02-28T17:21:25;22.42;;;15.40;;
54406;SDS011;40313;50.308;30.374;2023-02-28T17:23:51;26.65;;;13.48;;
54406;SDS011;40313;50.308;30.374;2023-02-28T17:26:20;14.73;;;13.20;;
54406;SDS011;40313;50.308;30.374;2023-02-28T17:28:49;19.35;;;14.50;;
54406;SDS011;40313;50.308;30.374;2023-02-28T17:31:17;20.55;;;13.60;;
54406;SDS011;40313;50.308;30.374;2023-02-28T17:33:44;22.45;;;12.98;;
54406;SDS011;40313;50.308;30.374;2023-02-28T17:36:11;14.48;;;11.85;;
54406;SDS011;40313;50.308;30.374;2023-02-28T17:38:40;17.25;;;13.20;;
54406;SDS011;40313;50.308;30.374;2023-02-28T17:41:07;14.00;;;11.57;;
54406;SDS011;40313;50.308;30.374;2023-02-28T17:43:37;15.38;;;11.10;;
54406;SDS011;40313;50.308;30.374;2023-02-28T17:46:04;15.50;;;11.68;;
54406;SDS011;40313;50.308;30.374;2023-02-28T17:48:31;15.27;;;11.90;;
54406;SDS011;40313;50.308;30.374;2023-02-28T17:50:58;13.00;;;11.70;;
54406;SDS011;40313;50.308;30.374;2023-02-28T17:53:25;16.42;;;11.57;;
54406;SDS011;40313;50.308;30.374;2023-02-28T18:17:59;13.48;;;11.57;;
54406;SDS011;40313;50.308;30.374;2023-02-28T18:20:27;19.13;;;13.18;;
54406;SDS011;40313;50.308;30.374;2023-02-28T18:22:53;15.70;;;11.98;;
54406;SDS011;40313;50.308;30.374;2023-02-28T19:51:19;27.07;;;14.87;;
